Gifford, WA

9:01 AM PST on February 28, 2015 (GMT -0800)
KWAKETTL2 | Change Station
CLOSE
Current Station
Personal Weather Station
Location: Kettle Falls, WA
Elevation: 1900 ft
Nearby Weather Stations

Elev 1900 ft 48.49 °N, 118.16 °W | Updated 1 minute ago

Clear
Clear
33.6 °F
Feels Like 34 °F
N
1.3
Wind Variable Wind from SSW
Gusts 1.3 mph

Today
High -- | Low -- °F
--% Chance of Precip.
Yesterday
High -- | Low -- °F
Precip. -- in
6:35 AM 5:34 PM
Waxing Gibbous, 78% visible
Pressure 30.18 in
Visibility 10.0 miles
Clouds Clear
Windchill 34 °F
Dew Point 12 °F
Humidity 41%
Rainfall 0.00 in
Snow Depth Not available.
UV 1 out of 12
Pollen 4.20 out of 12
Air Quality Not available.
Flu Activity Not available.
METAR KDEW 281553Z AUTO 05008KT 10SM CLR M01/M14 A3012 RMK AO2 SLP220 T10061139

More Conditions Fewer Conditions

Pressure 30.18 in
Visibility 10.0 miles
Clouds Clear
Windchill 34 °F
Dew Point 12 °F
Humidity 41%
Rainfall 0.00 in
Snow Depth Not available.
UV 1 out of 12
Pollen 4.20 out of 12
Air Quality Not available.
Flu Activity Not available.
METAR KDEW 281553Z AUTO 05008KT 10SM CLR M01/M14 A3012 RMK AO2 SLP220 T10061139

More Conditions Fewer Conditions

10-Day Weather Forecast

Almanac

Astronomy

Feb. 28, 2015 Rise Set
Actual Time
Civil Twilight
Nautical Twilight
Astronomical Twilight
Moon
Length of Visible Light
Length of Day
Tomorrow will be .
, % of the Moon is Illuminated

Today's Extremes

State Highs State Lows

Community

WunderPhotos

Upload Photos

1,801,089 photos uploaded!

WunderBlogs® & News

Nearby

Air Quality

  Air Quality AQ Index Pollutant
Not available.

Snow Depth

Station Depth Elevation

Earthquake Activity

City Distance Mag. Time & Date
Minimum magnitude displayed is 2.5.

Coastal Water Temperatures

Place Temperature

Nearby Weather Stations